createdAt,value
2023-02-11T00:00:18.826Z,23.70
2023-02-11T00:01:18.840Z,24.40
2023-02-11T00:02:18.860Z,25.30
2023-02-11T00:03:18.833Z,23.80
2023-02-11T00:04:18.774Z,24.30
2023-02-11T00:05:18.746Z,24.70
2023-02-11T00:06:18.743Z,24.00
2023-02-11T00:07:18.700Z,23.70
2023-02-11T00:08:18.674Z,24.10
2023-02-11T00:09:18.656Z,23.20
2023-02-11T00:10:18.648Z,24.30
2023-02-11T00:11:18.676Z,23.00
2023-02-11T00:12:18.622Z,24.40
2023-02-11T00:13:18.581Z,23.70
2023-02-11T00:14:18.564Z,24.80
2023-02-11T00:15:18.580Z,25.00
2023-02-11T00:16:18.599Z,24.20
2023-02-11T00:17:18.531Z,24.00
2023-02-11T00:18:18.514Z,24.40
2023-02-11T00:19:18.519Z,23.60
2023-02-11T00:20:18.475Z,24.20
2023-02-11T00:21:18.501Z,24.20
2023-02-11T00:22:18.445Z,25.00
2023-02-11T00:23:18.424Z,24.20
2023-02-11T00:24:18.429Z,25.20
2023-02-11T00:25:18.389Z,26.50
2023-02-11T00:26:18.435Z,25.50
2023-02-11T00:27:18.353Z,25.60
2023-02-11T00:28:18.388Z,25.90
2023-02-11T00:29:18.330Z,25.50
2023-02-11T00:30:18.310Z,26.20
2023-02-11T00:31:18.390Z,25.90
2023-02-11T00:32:18.286Z,24.70
2023-02-11T00:33:18.261Z,24.70
2023-02-11T00:34:18.235Z,25.60
2023-02-11T00:35:18.212Z,24.30
2023-02-11T00:36:18.251Z,26.90
2023-02-11T00:37:18.195Z,26.00
2023-02-11T00:38:18.170Z,25.70
2023-02-11T00:39:18.144Z,25.50
2023-02-11T00:40:18.148Z,25.90
2023-02-11T00:41:18.153Z,26.00
2023-02-11T00:42:18.083Z,25.90
2023-02-11T00:43:18.101Z,24.90
2023-02-11T00:44:18.051Z,24.40
2023-02-11T00:45:18.026Z,24.70
2023-02-11T00:46:18.101Z,26.00
2023-02-11T00:47:17.989Z,26.80
2023-02-11T00:48:17.980Z,25.50
2023-02-11T00:49:17.977Z,25.00
2023-02-11T00:50:17.966Z,25.40
2023-02-11T00:51:17.971Z,25.10
2023-02-11T00:52:18.775Z,25.80
2023-02-11T00:53:17.917Z,27.10
2023-02-11T00:54:17.875Z,26.10
2023-02-11T00:55:17.879Z,25.10
2023-02-11T00:56:18.891Z,26.20
2023-02-11T00:57:17.832Z,26.80
2023-02-11T00:58:17.812Z,25.90
2023-02-11T00:59:17.791Z,25.30
2023-02-11T01:00:17.780Z,25.70
2023-02-11T01:01:18.015Z,25.50
2023-02-11T01:02:17.751Z,25.30
2023-02-11T01:03:17.730Z,24.80
2023-02-11T01:04:17.713Z,26.00
2023-02-11T01:05:17.760Z,25.20
2023-02-11T01:06:17.681Z,25.40
2023-02-11T01:07:17.698Z,25.30
2023-02-11T01:08:17.642Z,26.00
2023-02-11T01:09:17.620Z,25.70
2023-02-11T01:10:17.624Z,25.60
2023-02-11T01:11:17.601Z,24.80
2023-02-11T01:12:17.615Z,26.30
2023-02-11T01:13:17.563Z,26.20
2023-02-11T01:14:17.554Z,26.40
2023-02-11T01:15:17.551Z,26.10
2023-02-11T01:16:17.602Z,26.40
2023-02-11T01:17:17.559Z,25.30
2023-02-11T01:18:17.507Z,25.20
2023-02-11T01:19:17.478Z,24.50
2023-02-11T01:20:17.447Z,26.70
2023-02-11T01:21:17.436Z,25.50
2023-02-11T01:22:17.519Z,24.70
2023-02-11T01:23:17.426Z,24.30
2023-02-11T01:24:17.377Z,24.70
2023-02-11T01:25:17.386Z,23.90
2023-02-11T01:26:17.359Z,23.80
2023-02-11T01:27:17.368Z,24.50
2023-02-11T01:28:17.378Z,25.00
2023-02-11T01:29:17.299Z,25.20
2023-02-11T01:30:17.297Z,24.90
2023-02-11T01:31:17.319Z,24.60
2023-02-11T01:32:17.316Z,24.80
2023-02-11T01:33:17.221Z,24.60
2023-02-11T01:34:17.217Z,24.80
2023-02-11T01:35:17.230Z,24.50
2023-02-11T01:36:17.165Z,25.00
2023-02-11T01:37:17.188Z,23.50
2023-02-11T01:38:17.121Z,24.50
2023-02-11T01:39:17.115Z,24.40
2023-02-11T01:40:17.126Z,23.90
2023-02-11T01:41:17.080Z,24.40
2023-02-11T01:42:17.099Z,24.00
2023-02-11T01:43:17.049Z,24.50
2023-02-11T01:44:17.028Z,25.00
2023-02-11T01:45:17.004Z,24.30
2023-02-11T01:46:17.028Z,24.70
2023-02-11T01:47:17.021Z,24.90
2023-02-11T01:48:16.959Z,26.50
2023-02-11T01:49:16.987Z,25.30
2023-02-11T01:50:16.939Z,24.70
2023-02-11T01:51:17.901Z,24.30
2023-02-11T01:52:16.904Z,24.30
2023-02-11T01:53:16.889Z,24.80
2023-02-11T01:54:16.902Z,25.00
2023-02-11T01:55:16.954Z,23.70
2023-02-11T01:56:16.818Z,23.00
2023-02-11T01:57:16.824Z,24.60
2023-02-11T01:58:16.768Z,24.60
2023-02-11T01:59:16.779Z,24.30
2023-02-11T02:00:16.749Z,24.00
2023-02-11T02:01:16.762Z,24.40
2023-02-11T02:02:16.753Z,23.20
2023-02-11T02:03:16.727Z,24.60
2023-02-11T02:04:17.700Z,24.30
2023-02-11T02:05:16.659Z,25.00
2023-02-11T02:06:16.641Z,24.60
2023-02-11T02:07:16.666Z,25.20
2023-02-11T02:08:16.614Z,23.40
2023-02-11T02:09:16.628Z,23.20
2023-02-11T02:10:16.597Z,24.30
2023-02-11T02:11:16.569Z,25.00
2023-02-11T02:12:16.580Z,24.50
2023-02-11T02:13:16.592Z,24.00
2023-02-11T02:14:16.538Z,24.20
2023-02-11T02:15:16.498Z,24.00
2023-02-11T02:16:50.196Z,23.30
2023-02-11T02:17:16.484Z,23.80
2023-02-11T02:18:16.427Z,23.90
2023-02-11T02:19:16.409Z,23.70
2023-02-11T02:20:16.423Z,23.80
2023-02-11T02:21:16.405Z,22.80
2023-02-11T02:22:16.386Z,25.20
2023-02-11T02:23:16.361Z,25.10
2023-02-11T02:24:16.337Z,24.00
2023-02-11T02:25:16.329Z,24.10
2023-02-11T02:26:16.317Z,23.10
2023-02-11T02:27:16.360Z,23.90
2023-02-11T02:28:16.284Z,23.40
2023-02-11T02:29:16.241Z,23.90
2023-02-11T02:30:16.238Z,23.80
2023-02-11T02:31:16.402Z,23.60
2023-02-11T02:32:16.220Z,24.40
2023-02-11T02:33:22.911Z,25.40
2023-02-11T02:34:18.162Z,25.90
2023-02-11T02:35:16.182Z,24.90
2023-02-11T02:36:16.129Z,25.40
2023-02-11T02:37:16.149Z,25.80
2023-02-11T02:38:16.079Z,25.10
2023-02-11T02:39:16.061Z,26.00
2023-02-11T02:40:16.046Z,25.30
2023-02-11T02:41:16.054Z,26.00
2023-02-11T02:42:16.052Z,26.30
2023-02-11T02:43:16.003Z,26.50
2023-02-11T02:44:15.980Z,28.10
2023-02-11T02:45:15.975Z,24.40
2023-02-11T02:46:15.969Z,27.10
2023-02-11T02:47:16.030Z,26.30
2023-02-11T02:48:15.943Z,25.00
2023-02-11T02:49:15.895Z,25.40
2023-02-11T02:50:15.883Z,23.10
2023-02-11T02:51:15.876Z,25.30
2023-02-11T02:52:15.944Z,26.10
2023-02-11T02:53:15.838Z,26.80
2023-02-11T02:54:15.824Z,26.00
2023-02-11T02:55:15.807Z,25.60
2023-02-11T02:56:15.783Z,26.10
2023-02-11T02:57:15.802Z,26.00
2023-02-11T02:58:15.758Z,26.40
2023-02-11T02:59:15.736Z,26.50
2023-02-11T03:00:15.732Z,26.20
2023-02-11T03:01:15.726Z,25.10
2023-02-11T03:02:15.726Z,25.30
2023-02-11T03:03:15.678Z,25.20
2023-02-11T03:04:15.643Z,24.30
2023-02-11T03:05:15.630Z,25.60
2023-02-11T03:06:15.606Z,25.00
2023-02-11T03:07:16.613Z,24.60
2023-02-11T03:08:15.569Z,24.90
2023-02-11T03:09:15.560Z,23.80
2023-02-11T03:10:15.533Z,24.40
2023-02-11T03:11:15.530Z,23.90
2023-02-11T03:12:15.541Z,25.80
2023-02-11T03:13:15.475Z,24.70
2023-02-11T03:14:15.459Z,25.60
2023-02-11T03:15:15.455Z,24.80
2023-02-11T03:16:15.508Z,24.60
2023-02-11T03:17:15.472Z,24.40
2023-02-11T03:18:15.392Z,23.80
2023-02-11T03:19:15.385Z,25.30
2023-02-11T03:20:15.362Z,23.60
2023-02-11T03:21:15.352Z,24.50
2023-02-11T03:22:15.366Z,25.40
2023-02-11T03:23:15.329Z,24.70
2023-02-11T03:24:16.318Z,23.30
2023-02-11T03:25:15.280Z,23.40
2023-02-11T03:26:15.254Z,23.50
2023-02-11T03:27:15.285Z,24.10
2023-02-11T03:28:15.252Z,23.80
2023-02-11T03:29:15.255Z,22.90
2023-02-11T03:30:15.235Z,23.40
2023-02-11T03:31:15.328Z,22.50
2023-02-11T03:32:15.373Z,24.60
2023-02-11T03:33:15.154Z,23.30
2023-02-11T03:34:15.120Z,23.50
2023-02-11T03:35:15.098Z,24.30
2023-02-11T03:36:15.075Z,22.90
2023-02-11T03:37:15.118Z,23.90
2023-02-11T03:38:15.054Z,24.10
2023-02-11T03:39:15.035Z,24.00
2023-02-11T03:40:15.043Z,23.70
2023-02-11T03:41:15.010Z,24.10
2023-02-11T03:42:15.014Z,23.90
2023-02-11T03:43:14.976Z,23.00
2023-02-11T03:44:14.948Z,22.90
2023-02-11T03:45:14.951Z,23.40
2023-02-11T03:46:14.925Z,23.50
2023-02-11T03:47:14.930Z,23.30
2023-02-11T03:48:14.874Z,23.90
2023-02-11T03:49:14.856Z,22.80
2023-02-11T03:50:14.854Z,23.30
2023-02-11T03:51:15.418Z,22.90
2023-02-11T03:52:14.834Z,22.60
2023-02-11T03:53:14.821Z,24.00
2023-02-11T03:54:14.786Z,23.20
2023-02-11T03:55:14.771Z,22.60
2023-02-11T03:56:14.744Z,22.90
2023-02-11T03:57:14.754Z,22.10
2023-02-11T03:58:14.703Z,22.80
2023-02-11T03:59:14.702Z,22.00
2023-02-11T04:00:14.736Z,22.00
2023-02-11T04:01:14.713Z,22.30
2023-02-11T04:02:14.682Z,22.00
2023-02-11T04:03:14.637Z,23.40
2023-02-11T04:04:14.600Z,22.50
2023-02-11T04:05:14.577Z,22.80
2023-02-11T04:06:14.559Z,22.80
2023-02-11T04:07:14.585Z,22.80
2023-02-11T04:08:14.540Z,24.40
2023-02-11T04:09:14.524Z,23.50
2023-02-11T04:10:14.517Z,23.50
2023-02-11T04:11:14.494Z,23.20
2023-02-11T04:12:14.498Z,24.60
2023-02-11T04:13:14.448Z,23.40
2023-02-11T04:14:14.456Z,23.70
2023-02-11T04:15:14.412Z,23.20
2023-02-11T04:16:14.448Z,22.50
2023-02-11T04:17:14.427Z,22.40
2023-02-11T04:18:14.374Z,23.40
2023-02-11T04:19:14.344Z,22.20
2023-02-11T04:20:14.342Z,23.50
2023-02-11T04:21:14.319Z,21.50
2023-02-11T04:22:14.342Z,23.50
2023-02-11T04:23:14.270Z,23.20
2023-02-11T04:24:14.267Z,23.70
2023-02-11T04:25:14.257Z,23.10
2023-02-11T04:26:14.283Z,23.00
2023-02-11T04:27:14.231Z,22.60
2023-02-11T04:28:14.224Z,23.30
2023-02-11T04:29:14.204Z,22.90
2023-02-11T04:30:14.157Z,23.10
2023-02-11T04:31:14.201Z,23.10
2023-02-11T04:32:14.172Z,22.70
2023-02-11T04:33:14.116Z,23.40
2023-02-11T04:34:14.089Z,23.60
2023-02-11T04:35:14.079Z,22.40
2023-02-11T04:36:14.061Z,23.50
2023-02-11T04:37:14.080Z,24.00
2023-02-11T04:38:14.032Z,22.10
2023-02-11T04:39:14.014Z,22.70
2023-02-11T04:40:13.981Z,24.20
2023-02-11T04:41:13.963Z,22.70
2023-02-11T04:42:13.958Z,25.10
2023-02-11T04:43:13.971Z,24.20
2023-02-11T04:44:13.905Z,24.70
2023-02-11T04:45:13.902Z,24.90
2023-02-11T04:46:13.941Z,24.60
2023-02-11T04:47:13.863Z,23.50
2023-02-11T04:48:13.873Z,24.10
2023-02-11T04:49:13.815Z,26.10
2023-02-11T04:50:13.811Z,24.80
2023-02-11T04:51:13.796Z,24.60
2023-02-11T04:52:13.789Z,24.60
2023-02-11T04:53:13.789Z,25.60
2023-02-11T04:54:13.743Z,25.30
2023-02-11T04:55:13.736Z,25.30
2023-02-11T04:56:13.716Z,25.40
2023-02-11T04:57:13.705Z,24.80
2023-02-11T04:58:13.713Z,25.60
2023-02-11T04:59:13.647Z,24.50
2023-02-11T05:00:13.643Z,25.40
2023-02-11T05:01:13.617Z,24.70
2023-02-11T05:02:13.639Z,24.90
2023-02-11T05:03:13.613Z,24.60
2023-02-11T05:04:13.678Z,24.80
2023-02-11T05:05:13.599Z,25.30
2023-02-11T05:06:13.539Z,25.20
2023-02-11T05:07:13.524Z,24.10
2023-02-11T05:08:13.538Z,26.60
2023-02-11T05:09:13.487Z,24.80
2023-02-11T05:10:13.458Z,25.80
2023-02-11T05:11:13.468Z,25.60
2023-02-11T05:12:13.490Z,25.40
2023-02-11T05:13:13.461Z,25.80
2023-02-11T05:14:13.397Z,27.70
2023-02-11T05:15:13.375Z,26.40
2023-02-11T05:16:13.405Z,28.60
2023-02-11T05:17:13.362Z,27.30
2023-02-11T05:18:13.357Z,26.50
2023-02-11T05:19:13.569Z,27.30
2023-02-11T05:20:13.302Z,25.70
2023-02-11T05:21:13.269Z,25.90
2023-02-11T05:22:13.262Z,25.80
2023-02-11T05:23:13.273Z,25.60
2023-02-11T05:24:13.234Z,27.00
2023-02-11T05:25:13.230Z,26.80
2023-02-11T05:26:13.187Z,26.60
2023-02-11T05:27:13.167Z,26.40
2023-02-11T05:28:13.273Z,26.40
2023-02-11T05:29:13.136Z,26.50
2023-02-11T05:30:13.116Z,27.10
2023-02-11T05:31:13.203Z,25.90
2023-02-11T05:32:13.083Z,26.00
2023-02-11T05:33:13.106Z,27.20
2023-02-11T05:34:13.055Z,25.60
2023-02-11T05:35:13.059Z,26.90
2023-02-11T05:36:13.009Z,26.20
2023-02-11T05:37:14.054Z,27.40
2023-02-11T05:38:13.034Z,25.90
2023-02-11T05:39:12.970Z,25.50
2023-02-11T05:40:12.962Z,26.60
2023-02-11T05:41:12.938Z,26.50
2023-02-11T05:42:12.929Z,26.40
2023-02-11T05:43:12.958Z,25.50
2023-02-11T05:44:12.907Z,26.90
2023-02-11T05:45:12.862Z,25.40
2023-02-11T05:46:12.894Z,25.10
2023-02-11T05:47:12.825Z,25.60
2023-02-11T05:48:12.829Z,24.80
2023-02-11T05:49:12.804Z,24.70
2023-02-11T05:50:12.787Z,27.00
2023-02-11T05:51:12.771Z,26.20
2023-02-11T05:52:12.728Z,25.30
2023-02-11T05:53:12.762Z,25.40
2023-02-11T05:54:12.717Z,24.20
2023-02-11T05:55:12.703Z,26.40
2023-02-11T05:56:12.687Z,26.10
2023-02-11T05:57:12.693Z,24.60
2023-02-11T05:58:12.694Z,25.40
2023-02-11T05:59:12.634Z,25.30
2023-02-11T06:00:12.608Z,26.00
2023-02-11T06:01:12.621Z,25.40
2023-02-11T06:02:12.600Z,27.20
2023-02-11T06:03:12.698Z,25.40
2023-02-11T06:04:12.550Z,25.40
2023-02-11T06:05:12.554Z,26.60
2023-02-11T06:06:12.494Z,25.90
2023-02-11T06:07:12.470Z,26.00
2023-02-11T06:08:12.513Z,25.60
2023-02-11T06:09:12.516Z,25.50
2023-02-11T06:10:12.432Z,25.20
2023-02-11T06:11:12.423Z,26.50
2023-02-11T06:12:12.390Z,27.30
2023-02-11T06:13:12.489Z,27.20
2023-02-11T06:14:12.389Z,27.10
2023-02-11T06:15:12.354Z,25.80
2023-02-11T06:16:12.358Z,26.70
2023-02-11T06:17:14.618Z,27.30
2023-02-11T06:18:12.317Z,27.00
2023-02-11T06:19:12.277Z,27.30
2023-02-11T06:20:12.247Z,27.00
2023-02-11T06:21:12.231Z,26.70
2023-02-11T06:22:12.227Z,27.10
2023-02-11T06:23:12.216Z,27.50
2023-02-11T06:24:13.203Z,27.90
2023-02-11T06:25:12.161Z,27.50
2023-02-11T06:26:12.146Z,27.00
2023-02-11T06:27:12.160Z,27.30
2023-02-11T06:28:12.215Z,25.50
2023-02-11T06:29:12.093Z,27.20
2023-02-11T06:30:12.062Z,26.50
2023-02-11T06:31:12.223Z,27.40
2023-02-11T06:32:33.585Z,26.90
2023-02-11T06:33:14.058Z,26.10
2023-02-11T06:34:12.004Z,27.80
2023-02-11T06:35:12.489Z,27.10
2023-02-11T06:36:12.969Z,26.30
2023-02-11T06:37:11.968Z,25.30
2023-02-11T06:38:11.974Z,25.80
2023-02-11T06:39:11.973Z,26.60
2023-02-11T06:40:11.933Z,27.40
2023-02-11T06:41:11.889Z,26.90
2023-02-11T06:42:11.883Z,26.00
2023-02-11T06:43:11.879Z,24.80
2023-02-11T06:44:11.839Z,27.10
2023-02-11T06:45:11.807Z,26.40
2023-02-11T06:46:11.811Z,26.40
2023-02-11T06:47:11.794Z,27.20
2023-02-11T06:48:11.871Z,25.60
2023-02-11T06:49:11.751Z,26.70
2023-02-11T06:50:11.731Z,26.20
2023-02-11T06:51:11.746Z,25.90
2023-02-11T06:52:11.687Z,26.50
2023-02-11T06:53:11.704Z,25.90
2023-02-11T06:54:11.659Z,25.90
2023-02-11T06:55:11.638Z,26.60
2023-02-11T06:56:11.670Z,26.10
2023-02-11T06:57:11.622Z,25.10
2023-02-11T06:58:11.633Z,28.20
2023-02-11T06:59:11.584Z,26.40
2023-02-11T07:00:11.555Z,27.10
2023-02-11T07:01:11.581Z,26.40
2023-02-11T07:02:11.641Z,25.60
2023-02-11T07:03:11.546Z,26.10
2023-02-11T07:04:11.480Z,25.40
2023-02-11T07:05:11.469Z,27.30
2023-02-11T07:06:11.465Z,26.20
2023-02-11T07:07:11.427Z,25.30
2023-02-11T07:08:11.560Z,26.10
2023-02-11T07:09:11.423Z,25.30
2023-02-11T07:10:11.383Z,26.40
2023-02-11T07:11:11.375Z,25.90
2023-02-11T07:12:11.375Z,26.00
2023-02-11T07:13:11.374Z,25.90
2023-02-11T07:14:11.316Z,25.60
2023-02-11T07:15:11.286Z,25.80
2023-02-11T07:16:11.367Z,25.00
2023-02-11T07:17:11.247Z,26.30
2023-02-11T07:18:14.296Z,26.60
2023-02-11T07:19:11.223Z,26.00
2023-02-11T07:20:11.213Z,26.10
2023-02-11T07:21:11.217Z,26.40
2023-02-11T07:22:11.167Z,26.50
2023-02-11T07:23:11.192Z,26.30
2023-02-11T07:24:11.531Z,28.60
2023-02-11T07:25:12.115Z,24.70
2023-02-11T07:26:11.101Z,27.40
2023-02-11T07:27:11.104Z,26.40
2023-02-11T07:28:11.248Z,26.50
2023-02-11T07:29:11.063Z,24.90
2023-02-11T07:30:11.045Z,25.30
2023-02-11T07:31:11.105Z,26.80
2023-02-11T07:32:11.062Z,25.60
2023-02-11T07:33:11.012Z,25.60
2023-02-11T07:34:11.001Z,26.80
2023-02-11T07:35:10.951Z,26.40
2023-02-11T07:36:10.925Z,25.40
2023-02-11T07:37:10.919Z,27.00
2023-02-11T07:38:10.929Z,26.00
2023-02-11T07:39:10.908Z,26.20
2023-02-11T07:40:10.867Z,25.50
2023-02-11T07:41:10.840Z,25.70
2023-02-11T07:42:10.913Z,24.90
2023-02-11T07:43:10.851Z,25.10
2023-02-11T07:44:10.776Z,25.90
2023-02-11T07:45:10.784Z,26.10
2023-02-11T07:46:10.797Z,25.90
2023-02-11T07:47:10.741Z,26.00
2023-02-11T07:48:10.788Z,24.90
2023-02-11T07:49:10.693Z,26.30
2023-02-11T07:50:10.702Z,25.00
2023-02-11T07:51:10.722Z,27.00
2023-02-11T07:52:10.658Z,25.50
2023-02-11T07:53:10.676Z,24.80
2023-02-11T07:54:10.621Z,24.20
2023-02-11T07:55:10.604Z,24.80
2023-02-11T07:56:10.612Z,25.00
2023-02-11T07:57:10.561Z,25.70
2023-02-11T07:58:10.574Z,25.30
2023-02-11T07:59:10.536Z,25.10
2023-02-11T08:00:10.517Z,24.40
2023-02-11T08:01:10.527Z,26.40
2023-02-11T08:02:10.571Z,25.00
2023-02-11T08:03:10.493Z,25.40
2023-02-11T08:04:10.456Z,24.80
2023-02-11T08:05:10.454Z,24.30
2023-02-11T08:06:10.437Z,25.30
2023-02-11T08:07:10.398Z,24.90
2023-02-11T08:08:10.413Z,25.60
2023-02-11T08:09:10.375Z,23.60
2023-02-11T08:10:10.336Z,24.70
2023-02-11T08:11:10.345Z,25.90
2023-02-11T08:12:10.301Z,24.30
2023-02-11T08:13:10.339Z,24.60
2023-02-11T08:14:10.267Z,23.20
2023-02-11T08:15:10.252Z,23.30
2023-02-11T08:16:10.258Z,23.60
2023-02-11T08:17:42.574Z,23.90
2023-02-11T08:18:10.207Z,24.20
2023-02-11T08:19:10.231Z,23.30
2023-02-11T08:20:10.192Z,23.10
2023-02-11T08:21:10.154Z,23.90
2023-02-11T08:22:10.148Z,23.20
2023-02-11T08:23:10.138Z,23.70
2023-02-11T08:24:10.160Z,23.40
2023-02-11T08:25:10.131Z,24.50
2023-02-11T08:26:10.072Z,24.10
2023-02-11T08:27:10.057Z,23.30
2023-02-11T08:28:10.097Z,24.60
2023-02-11T08:29:10.040Z,25.00
2023-02-11T08:30:09.993Z,25.50
2023-02-11T08:31:10.027Z,24.20
2023-02-11T08:32:10.066Z,24.00
2023-02-11T08:33:09.963Z,25.40
2023-02-11T08:34:09.975Z,25.60
2023-02-11T08:35:09.910Z,24.20
2023-02-11T08:36:09.916Z,26.80
2023-02-11T08:37:09.913Z,25.20
2023-02-11T08:38:09.872Z,25.70
2023-02-11T08:39:19.120Z,25.70
2023-02-11T08:40:11.853Z,24.40
2023-02-11T08:41:09.808Z,26.80
2023-02-11T08:42:09.820Z,26.30
2023-02-11T08:43:09.830Z,30.60
2023-02-11T08:44:09.775Z,35.30
2023-02-11T08:45:09.728Z,32.90
2023-02-11T08:46:09.790Z,33.70
2023-02-11T08:47:09.734Z,32.20
2023-02-11T08:48:09.705Z,31.20
2023-02-11T08:49:09.756Z,35.30
2023-02-11T08:50:09.652Z,32.40
2023-02-11T08:51:09.662Z,31.90
2023-02-11T08:52:09.645Z,32.70
2023-02-11T08:53:09.605Z,31.00
2023-02-11T08:54:09.631Z,29.50
2023-02-11T08:55:09.562Z,30.00
2023-02-11T08:56:11.169Z,28.80
2023-02-11T08:57:09.553Z,28.40
2023-02-11T08:58:09.543Z,29.80
2023-02-11T08:59:09.614Z,28.00
2023-02-11T09:00:09.472Z,25.40
2023-02-11T09:01:09.531Z,26.00
2023-02-11T09:02:09.504Z,26.10
2023-02-11T09:03:09.425Z,26.30
2023-02-11T09:04:09.458Z,26.10
2023-02-11T09:05:09.394Z,27.70
2023-02-11T09:06:09.371Z,25.70
2023-02-11T09:07:09.361Z,24.50
2023-02-11T09:08:09.340Z,25.10
2023-02-11T09:09:09.346Z,23.60
2023-02-11T09:10:09.323Z,24.90
2023-02-11T09:11:09.300Z,25.30
2023-02-11T09:12:09.262Z,27.80
2023-02-11T09:13:09.257Z,24.10
2023-02-11T09:14:09.257Z,25.60
2023-02-11T09:15:09.225Z,25.40
2023-02-11T09:16:09.207Z,23.80
2023-02-11T09:17:09.292Z,23.80
2023-02-11T09:18:09.234Z,24.30
2023-02-11T09:19:10.170Z,24.30
2023-02-11T09:20:10.764Z,24.20
2023-02-11T09:21:10.135Z,24.70
2023-02-11T09:22:09.097Z,24.10
2023-02-11T09:23:09.075Z,24.70
2023-02-11T09:24:09.092Z,23.20
2023-02-11T09:25:09.065Z,24.10
2023-02-11T09:26:09.572Z,23.20
2023-02-11T09:27:10.006Z,25.30
2023-02-11T09:28:09.032Z,25.20
2023-02-11T09:29:09.018Z,23.50
2023-02-11T09:30:08.956Z,22.50
2023-02-11T09:31:09.026Z,24.50
2023-02-11T09:32:10.014Z,24.30
2023-02-11T09:33:09.909Z,24.50
2023-02-11T09:34:08.925Z,24.90
2023-02-11T09:35:08.863Z,27.40
2023-02-11T09:36:08.933Z,25.70
2023-02-11T09:37:08.894Z,26.40
2023-02-11T09:38:08.831Z,25.50
2023-02-11T09:39:08.838Z,25.20
2023-02-11T09:40:08.823Z,25.60
2023-02-11T09:41:08.830Z,24.30
2023-02-11T09:42:08.770Z,22.80
2023-02-11T09:43:08.747Z,22.70
2023-02-11T09:44:08.767Z,24.40
2023-02-11T09:45:08.721Z,22.30
2023-02-11T09:46:08.740Z,22.10
2023-02-11T09:47:08.667Z,21.20
2023-02-11T09:48:08.658Z,20.90
2023-02-11T09:49:08.676Z,21.30
2023-02-11T09:50:08.626Z,21.30
2023-02-11T09:51:08.611Z,21.80
2023-02-11T09:52:08.590Z,20.80
2023-02-11T09:53:08.577Z,21.80
2023-02-11T09:54:08.594Z,20.10
2023-02-11T09:55:08.567Z,19.90
2023-02-11T09:56:08.560Z,21.00
2023-02-11T09:57:19.521Z,21.10
2023-02-11T09:58:10.481Z,20.50
2023-02-11T09:59:08.490Z,21.50
2023-02-11T10:00:08.454Z,21.30
2023-02-11T10:01:08.506Z,21.30
2023-02-11T10:02:08.420Z,21.30
2023-02-11T10:03:08.424Z,22.10
2023-02-11T10:04:08.461Z,21.50
2023-02-11T10:05:08.369Z,21.60
2023-02-11T10:06:08.358Z,22.00
2023-02-11T10:07:08.384Z,20.40
2023-02-11T10:08:08.306Z,19.90
2023-02-11T10:09:08.329Z,20.10
2023-02-11T10:10:08.278Z,19.70
2023-02-11T10:11:08.312Z,19.50
2023-02-11T10:12:08.261Z,19.20
2023-02-11T10:13:08.233Z,19.60
2023-02-11T10:14:08.254Z,19.40
2023-02-11T10:15:08.192Z,18.60
2023-02-11T10:16:08.252Z,18.70
2023-02-11T10:17:08.154Z,17.90
2023-02-11T10:18:08.145Z,19.50
2023-02-11T10:19:08.180Z,20.10
2023-02-11T10:20:08.122Z,18.20
2023-02-11T10:21:08.108Z,19.20
2023-02-11T10:22:08.117Z,19.50
2023-02-11T10:23:08.055Z,17.70
2023-02-11T10:24:08.098Z,19.00
2023-02-11T10:25:08.062Z,19.40
2023-02-11T10:26:08.011Z,19.60
2023-02-11T10:27:08.017Z,18.30
2023-02-11T10:28:08.053Z,19.30
2023-02-11T10:29:07.991Z,18.50
2023-02-11T10:30:07.937Z,18.80
2023-02-11T10:31:08.057Z,17.70
2023-02-11T10:32:07.941Z,17.30
2023-02-11T10:33:07.919Z,17.70
2023-02-11T10:34:07.912Z,16.70
2023-02-11T10:35:07.864Z,17.40
2023-02-11T10:36:07.852Z,17.30
2023-02-11T10:37:07.829Z,17.90
2023-02-11T10:38:07.837Z,19.00
2023-02-11T10:39:07.798Z,17.50
2023-02-11T10:40:07.820Z,17.70
2023-02-11T10:41:07.759Z,17.90
2023-02-11T10:42:07.739Z,17.80
2023-02-11T10:43:07.722Z,18.40
2023-02-11T10:44:07.697Z,18.50
2023-02-11T10:45:07.708Z,19.40
2023-02-11T10:46:07.691Z,20.30
2023-02-11T10:47:07.643Z,19.20
2023-02-11T10:48:07.640Z,19.80
2023-02-11T10:49:07.638Z,20.30
2023-02-11T10:50:07.638Z,20.90
2023-02-11T10:51:07.586Z,21.10
2023-02-11T10:52:07.595Z,21.70
2023-02-11T10:53:07.553Z,20.80
2023-02-11T10:54:07.540Z,21.40
2023-02-11T10:55:07.577Z,21.10
2023-02-11T10:56:07.515Z,20.90
2023-02-11T10:57:07.477Z,19.90
2023-02-11T10:58:07.462Z,22.00
2023-02-11T10:59:07.452Z,20.60
2023-02-11T11:00:07.487Z,21.00
2023-02-11T11:01:22.425Z,21.00
2023-02-11T11:02:09.432Z,20.80
2023-02-11T11:03:07.428Z,21.30
2023-02-11T11:04:07.361Z,21.30
2023-02-11T11:05:07.466Z,21.00
2023-02-11T11:06:07.327Z,20.70
2023-02-11T11:07:07.316Z,22.10
2023-02-11T11:08:07.290Z,21.10
2023-02-11T11:09:07.294Z,21.20
2023-02-11T11:10:07.303Z,20.90
2023-02-11T11:11:07.263Z,20.80
2023-02-11T11:12:07.220Z,20.50
2023-02-11T11:13:07.276Z,19.80
2023-02-11T11:14:07.186Z,20.40
2023-02-11T11:15:07.202Z,20.00
2023-02-11T11:16:07.178Z,19.60
2023-02-11T11:17:07.137Z,20.60
2023-02-11T11:18:20.529Z,19.40
2023-02-11T11:19:09.104Z,20.50
2023-02-11T11:20:07.109Z,21.20
2023-02-11T11:21:07.077Z,19.20
2023-02-11T11:22:07.061Z,18.90
2023-02-11T11:23:07.034Z,18.00
2023-02-11T11:24:07.033Z,17.80
2023-02-11T11:25:07.034Z,18.30
2023-02-11T11:26:06.989Z,16.40
2023-02-11T11:27:07.003Z,15.30
2023-02-11T11:28:07.031Z,16.20
2023-02-11T11:29:06.941Z,15.00
2023-02-11T11:30:06.981Z,15.90
2023-02-11T11:31:06.982Z,14.80
2023-02-11T11:32:06.990Z,14.10
2023-02-11T11:33:06.865Z,13.90
2023-02-11T11:34:06.868Z,14.10
2023-02-11T11:35:06.875Z,14.50
2023-02-11T11:36:06.811Z,14.40
2023-02-11T11:37:07.796Z,15.20
2023-02-11T11:38:06.780Z,15.30
2023-02-11T11:39:06.763Z,14.60
2023-02-11T11:40:06.772Z,14.70
2023-02-11T11:41:06.734Z,15.10
2023-02-11T11:42:06.712Z,14.30
2023-02-11T11:43:06.741Z,13.20
2023-02-11T11:44:06.668Z,12.10
2023-02-11T11:45:06.681Z,11.90
2023-02-11T11:46:06.629Z,11.10
2023-02-11T11:47:06.616Z,11.70
2023-02-11T11:48:06.604Z,12.10
2023-02-11T11:49:06.579Z,12.40
2023-02-11T11:50:06.627Z,11.90
2023-02-11T11:51:06.554Z,11.90
2023-02-11T11:52:06.532Z,11.20
2023-02-11T11:53:06.511Z,12.40
2023-02-11T11:54:06.525Z,11.90
2023-02-11T11:55:06.540Z,11.10
2023-02-11T11:56:06.463Z,10.70
2023-02-11T11:57:06.456Z,10.70
2023-02-11T11:58:06.426Z,10.50
2023-02-11T11:59:06.414Z,10.40
2023-02-11T12:00:06.413Z,11.00
2023-02-11T12:01:06.375Z,10.00
2023-02-11T12:02:08.534Z,10.30
2023-02-11T12:03:07.393Z,10.50
2023-02-11T12:04:06.348Z,10.50
2023-02-11T12:05:06.335Z,10.20
2023-02-11T12:06:06.286Z,10.40
2023-02-11T12:07:06.274Z,10.20
2023-02-11T12:08:06.257Z,10.30
2023-02-11T12:09:06.246Z,10.80
2023-02-11T12:10:06.258Z,10.50
2023-02-11T12:11:06.199Z,10.80
2023-02-11T12:12:06.201Z,11.10
2023-02-11T12:13:06.188Z,10.30
2023-02-11T12:14:06.147Z,10.50
2023-02-11T12:15:06.186Z,10.10
2023-02-11T12:16:06.166Z,10.60
2023-02-11T12:17:06.096Z,10.50
2023-02-11T12:18:06.088Z,10.30
2023-02-11T12:19:06.069Z,10.70
2023-02-11T12:20:06.092Z,10.70
2023-02-11T12:21:06.040Z,10.50
2023-02-11T12:22:06.013Z,10.80
2023-02-11T12:23:06.001Z,11.10
2023-02-11T12:24:05.978Z,10.50
2023-02-11T12:25:06.004Z,10.70
2023-02-11T12:26:05.959Z,11.00
2023-02-11T12:27:05.924Z,11.50
2023-02-11T12:28:05.949Z,11.50
2023-02-11T12:29:05.903Z,11.40
2023-02-11T12:30:05.908Z,11.20
2023-02-11T12:31:05.945Z,10.80
2023-02-11T12:32:05.935Z,10.70
2023-02-11T12:33:05.858Z,11.60
2023-02-11T12:34:05.815Z,11.10
2023-02-11T12:35:05.831Z,11.30
2023-02-11T12:36:05.788Z,11.90
2023-02-11T12:37:07.937Z,12.10
2023-02-11T12:38:06.739Z,11.40
2023-02-11T12:39:05.853Z,11.40
2023-02-11T12:40:06.796Z,11.20
2023-02-11T12:41:05.683Z,11.80
2023-02-11T12:42:05.664Z,12.00
2023-02-11T12:43:05.661Z,13.80
2023-02-11T12:44:05.638Z,11.80
2023-02-11T12:45:05.657Z,11.80
2023-02-11T12:46:05.627Z,12.20
2023-02-11T12:47:05.591Z,12.70
2023-02-11T12:48:05.570Z,12.30
2023-02-11T12:49:05.560Z,11.70
2023-02-11T12:50:05.574Z,11.80
2023-02-11T12:51:05.599Z,11.50
2023-02-11T12:52:05.525Z,11.60